Alkor — DBND — position and weather

sailwx.info

Track history (hours):
 
Tides and Currents Weather Stations Pressure Air Temp Water Temp Dewpoint Dewpoint Depression Visibility Wind Speed Wind Dir Waves Ship Positions

Oceanographic research ship Alkor (Germany)

Ship's website: http://www.briese.de/

Detailed information on ship capabilities available from University of Delaware's Ocean Information Center.

Last reported at 2017-May-22 21:01 UTC. Time now 2017-May-22 21:11 UTC.
Position N 55°10' E 015°11'.

Length 55 m; draft 4.2 m.

Type: Ship. MMSI: 211216512.

Date/timePositionNaut miles runAvg speedWind from/ knotsBaromVisibWave heightAir tempDewpointWater temp
2017-May-22 21:01N 55°10' E 015°11'612.1
2017-May-22 20:31N 55°15' E 015°04'3 6.6
2017-May-22 20:00N 55°18' E 015°00'4 8.3
2017-May-22 19:30N 55°18' E 015°08'5 9.7
2017-May-22 19:01N 55°17' E 015°16'2 4.4
2017-May-22 18:30N 55°17' E 015°20'510.8
2017-May-22 18:00N 55°18' E 015°30'1 1.7
2017-May-22 17:31N 55°18' E 015°31'611.1
2017-May-22 17:01N 55°17' E 015°41'3 5.1
2017-May-22 16:31N 55°17' E 015°45'4 8.4
2017-May-22 16:01N 55°17' E 015°52'4 7.8
2017-May-22 15:26N 55°18' E 016°00'3 5.6
2017-May-22 14:59N 55°20' E 016°00'7 7.6
2017-May-22 14:00N 55°27' E 016°00'611.3
2017-May-22 13:28N 55°27' E 015°49'3 6.1
2017-May-22 13:01N 55°27' E 015°44'5 9.5
2017-May-22 12:31N 55°27' E 015°36'3 6.8
2017-May-22 12:01N 55°27' E 015°30'5 9.2
2017-May-22 11:31N 55°27' E 015°22'4 7.8
2017-May-22 11:00N 55°28' E 015°15'3 6.9
2017-May-22 10:31N 55°28' E 015°09'5 9.6
2017-May-22 10:01N 55°28' E 015°01'3 5.2
2017-May-22 09:31N 55°30' E 014°59'611.2
2017-May-22 09:01N 55°36' E 014°59'611.4
2017-May-22 08:30N 55°41' E 014°58'4 8.9
2017-May-22 08:00N 55°46' E 014°57'3 5.3
2017-May-22 07:30N 55°43' E 014°59'2 4.7
2017-May-22 07:00N 55°42' E 014°55'611.9
2017-May-22 06:30N 55°38' E 014°47'2 3.8
2017-May-22 06:00N 55°37' E 014°45'611.4
2017-May-22 05:29N 55°31' E 014°46'3 7.2
2017-May-22 05:00N 55°27' E 014°45'4 7.5
2017-May-22 04:31N 55°30' E 014°49'611.4
2017-May-22 04:00N 55°35' E 014°56'4 7.5
2017-May-22 03:30N 55°38' E 015°00'4 8.0
2017-May-22 03:00N 55°38' E 015°07'4 9.0
2017-May-22 02:31N 55°37' E 015°15'3 5.9
2017-May-22 02:00N 55°38' E 015°20'510.4
2017-May-22 01:31N 55°37' E 015°29'3 6.6
2017-May-22 01:01N 55°38' E 015°35'511.0
2017-May-22 00:31N 55°37' E 015°45'3 5.3
2017-May-22 00:01N 55°37' E 015°50'510.6
2017-May-21 23:30N 55°37' E 015°59'2 3.8
2017-May-21 23:01N 55°39' E 016°00'611.8
2017-May-21 22:31N 55°45' E 016°00'2 4.7
2017-May-21 22:01N 55°47' E 016°01'510.2
2017-May-21 21:30N 55°48' E 016°10'3 5.6
2017-May-21 21:01N 55°47' E 016°15'510.4
2017-May-21 20:31N 55°42' E 016°15'5 9.5
2017-May-21 20:01N 55°37' E 016°15'2 4.3
2017-May-21 19:31N 55°37' E 016°19'510.9
2017-May-21 19:01N 55°37' E 016°28'1 2.9
2017-May-21 18:30N 55°39' E 016°30'611.7
2017-May-21 18:01N 55°44' E 016°30'3 6.2
2017-May-21 17:31N 55°48' E 016°30'4 8.7
2017-May-21 17:01N 55°52' E 016°31'611.3
2017-May-21 16:30N 55°57' E 016°33'611.2
2017-May-21 16:00N 56°03' E 016°34'611.0
2017-May-21 15:30N 56°07' E 016°40'611.1
2017-May-21 15:01N 56°12' E 016°45'611.2
2017-May-21 14:30N 56°17' E 016°49'1211.1
2017-May-21 13:23N 56°29' E 016°57'  
2017-May-18 06:03N 55°46' E 018°30'0 0.8
2017-May-18 06:00N 55°46' E 018°30'510.3
2017-May-18 05:30N 55°49' E 018°22'611.5
2017-May-18 05:00N 55°52' E 018°14'1 2.4
2017-May-18 04:30N 55°53' E 018°13'9 7.4
2017-May-18 03:16N 55°55' E 018°29'46 4.6
2017-May-17 17:09N 55°12' E 018°58'211.8
2017-May-17 17:00N 55°10' E 018°59'611.7
2017-May-17 16:30N 55°04' E 019°02'5 9.3
2017-May-17 16:01N 55°00' E 019°05'2 4.5
2017-May-17 15:30N 54°58' E 019°07'510.2
2017-May-17 15:01N 54°54' E 019°12'7 7.0
2017-May-17 14:00N 54°58' E 019°02'611.5
2017-May-17 13:31N 55°01' E 018°54'5 9.1
2017-May-17 13:00N 55°04' E 018°47'1 2.8
2017-May-17 12:31N 55°03' E 018°46'2 3.1
2017-May-17 12:00N 55°02' E 018°45'510.1
2017-May-17 11:30N 54°58' E 018°38'611.8
2017-May-17 11:01N 54°54' E 018°45'3 5.0
2017-May-17 10:31N 54°52' E 018°48'2 3.1
2017-May-17 10:00N 54°51' E 018°51'3 5.7
2017-May-17 09:30N 54°50' E 018°55'3 6.8
2017-May-17 09:00N 54°49' E 019°01'2 3.1
2017-May-17 08:30N 54°48' E 019°03'3 5.8
2017-May-17 08:01N 54°47' E 019°08'611.7
2017-May-17 07:30N 54°42' E 019°11'611.1
2017-May-17 07:01N 54°36' E 019°13'1 2.9
2017-May-17 06:30N 54°37' E 019°15'2 3.2
2017-May-17 06:00N 54°38' E 019°17'5 9.9
2017-May-17 05:30N 54°43' E 019°17'2 3.5
2017-May-17 05:01N 54°44' E 019°15'611.6
2017-May-17 04:30N 54°49' E 019°08'1 2.6
2017-May-17 04:00N 54°50' E 019°07'611.3
2017-May-17 03:30N 54°53' E 018°59'3 5.9
2017-May-17 03:00N 54°54' E 018°54'3 6.6
2017-May-17 02:30N 54°56' E 018°49'611.0
2017-May-17 02:00N 54°59' E 018°41'1 2.7
2017-May-17 01:31N 55°00' E 018°41'611.1
2017-May-17 01:01N 55°06' E 018°44'510.3
2017-May-17 00:30N 55°10' E 018°49'2 3.6
2017-May-17 00:01N 55°11' E 018°47'611.3
2017-May-16 23:31N 55°14' E 018°39'1 2.7
2017-May-16 23:00N 55°14' E 018°36'611.5
2017-May-16 22:30N 55°10' E 018°29'3 5.2
2017-May-16 22:00N 55°09' E 018°25'4 8.8
2017-May-16 21:31N 55°13' E 018°23'510.7
2017-May-16 21:00N 55°19' E 018°21'5 9.3
2017-May-16 20:30N 55°23' E 018°19'3 5.1
2017-May-16 20:00N 55°24' E 018°15'611.3
2017-May-16 19:30N 55°26' E 018°06'611.2
2017-May-16 19:01N 55°29' E 017°57'1 2.7
2017-May-16 18:30N 55°28' E 017°55'611.6
2017-May-16 18:00N 55°22' E 017°55'611.6
2017-May-16 17:30N 55°16' E 017°55'2 4.3
2017-May-16 17:00N 55°14' E 017°54'511.0
2017-May-16 16:31N 55°15' E 017°45'510.8
2017-May-16 16:00N 55°15' E 017°35'2 3.4
2017-May-16 15:30N 55°17' E 017°35'611.5
2017-May-16 15:00N 55°22' E 017°35'3 5.1
2017-May-16 14:30N 55°25' E 017°35'1010.5
2017-May-16 13:31N 55°31' E 017°20'611.0
2017-May-16 13:00N 55°34' E 017°11'0 0.8
2017-May-16 12:30N 55°34' E 017°11'5 9.5
2017-May-16 12:00N 55°33' E 017°03'611.2
2017-May-16 11:30N 55°31' E 016°54'611.1
2017-May-16 11:00N 55°28' E 016°45'511.0
2017-May-16 10:30N 55°26' E 016°36'1 1.3
2017-May-16 10:00N 55°26' E 016°35'2 4.1
2017-May-16 09:30N 55°25' E 016°31'510.5
2017-May-16 09:01N 55°24' E 016°23'510.7
2017-May-16 08:30N 55°22' E 016°14'510.7
2017-May-16 08:00N 55°21' E 016°04'510.8
2017-May-16 07:31N 55°19' E 015°55'510.8
2017-May-16 07:00N 55°18' E 015°46'1 1.5
2017-May-16 06:30N 55°17' E 015°45'0 0.0
2017-May-16 06:00N 55°17' E 015°45'0 0.0
2017-May-16 05:30N 55°18' E 015°45'0 0.0
2017-May-16 05:00N 55°18' E 015°45'0 0.0
2017-May-16 04:31N 55°18' E 015°45'2 3.7
2017-May-16 04:00N 55°18' E 015°42'3 5.1
2017-May-16 03:30N 55°18' E 015°37'3 5.2
2017-May-16 03:00N 55°19' E 015°33'3 5.0
2017-May-16 02:30N 55°19' E 015°29'3 5.3
2017-May-16 02:01N 55°20' E 015°24'3 5.5
2017-May-16 01:30N 55°20' E 015°19'3 5.6
2017-May-16 01:00N 55°21' E 015°14'3 5.5
2017-May-16 00:31N 55°21' E 015°10'3 5.5
2017-May-16 00:01N 55°22' E 015°05'3 5.7
2017-May-15 23:30N 55°22' E 014°60'3 5.9
2017-May-15 23:01N 55°22' E 014°55'3 6.0
2017-May-15 22:30N 55°22' E 014°49'3 5.9
2017-May-15 22:01N 55°22' E 014°44'3 5.7
2017-May-15 21:30N 55°22' E 014°39'2 4.4
2017-May-15 21:00N 55°20' E 014°37'611.6
2017-May-15 20:30N 55°15' E 014°31'2 3.8
2017-May-15 20:00N 55°14' E 014°29'4 8.2
2017-May-15 19:30N 55°10' E 014°25'4 8.1
2017-May-15 19:00N 55°08' E 014°30'2 3.7
2017-May-15 18:30N 55°07' E 014°32'611.4
2017-May-15 18:00N 55°07' E 014°22'4 7.9
2017-May-15 17:30N 55°07' E 014°16'4 8.0
2017-May-15 17:01N 55°05' E 014°21'3 5.5
2017-May-15 16:31N 55°02' E 014°19'4 7.7
2017-May-15 16:00N 54°58' E 014°16'1 1.2
2017-May-15 15:30N 54°58' E 014°15'2 4.1
2017-May-15 14:58N 54°57' E 014°12'2 4.2
2017-May-15 14:30N 54°56' E 014°09'1010.2
2017-May-15 13:30N 54°50' E 013°54'511.2
2017-May-15 13:00N 54°47' E 013°47'2 2.7
2017-May-15 12:20N 54°47' E 013°50'1 2.5
2017-May-15 12:00N 54°47' E 013°51'611.4
2017-May-15 11:29N 54°46' E 013°41'611.7
2017-May-15 11:00N 54°46' E 013°31'2 1.6
2017-May-15 09:59N 54°46' E 013°34'2 1.5
2017-May-15 08:22N 54°47' E 013°38'1 2.7
2017-May-15 07:54N 54°47' E 013°40'11 7.0
2017-May-15 06:25N 54°56' E 013°49'1 2.8
2017-May-15 06:00N 54°56' E 013°51'0 0.5
2017-May-15 05:30N 54°56' E 013°52'2 3.1
2017-May-15 04:56N 54°55' E 013°50'1 2.5
2017-May-15 04:24N 54°55' E 013°47'1 1.5
2017-May-15 03:56N 54°55' E 013°46'2 3.2
2017-May-15 03:19N 54°57' E 013°47'1 2.4
2017-May-15 03:00N 54°57' E 013°46'712.1
2017-May-15 02:28N 54°57' E 013°35'3 5.2
2017-May-15 01:56N 54°56' E 013°30'11 6.8
2017-May-15 00:17N 54°47' E 013°42'3 8.7
2017-May-14 23:59N 54°47' E 013°47'5 7.4
2017-May-14 23:22N 54°50' E 013°52'411.3
2017-May-14 23:00N 54°53' E 013°58'2 4.5
2017-May-14 22:30N 54°54' E 014°01'510.8
2017-May-14 22:00N 54°60' E 014°01'2 4.7
2017-May-14 21:30N 55°02' E 014°02'611.3
2017-May-14 20:59N 55°08' E 014°02'2 3.3
2017-May-14 20:29N 55°09' E 013°60'611.6
2017-May-14 20:00N 55°07' E 013°50'3 5.7
2017-May-14 19:29N 55°07' E 013°45'611.3
2017-May-14 18:59N 55°07' E 013°35'3 6.9
2017-May-14 18:30N 55°07' E 013°30'6 9.8
2017-May-14 17:54N 55°05' E 013°20'2 5.3
2017-May-14 17:27N 55°04' E 013°16'510.6
2017-May-14 17:00N 54°59' E 013°15'11 2.0
2017-May-14 11:46N 54°49' E 013°15'0 0.1
2017-May-14 11:19N 54°49' E 013°15'1 3.8
2017-May-14 11:00N 54°49' E 013°17'2 4.0
2017-May-14 10:28N 54°49' E 013°21'4 4.7
2017-May-14 09:43N 54°49' E 013°27'5 2.7
2017-May-14 07:57N 54°53' E 013°33'510.4
2017-May-14 07:27N 54°57' E 013°27'511.5
2017-May-14 07:00N 54°59' E 013°19'2 4.3
2017-May-14 06:29N 54°59' E 013°15'1 2.3
2017-May-14 05:53N 54°57' E 013°15'21 8.3
2017-May-14 03:24N 54°52' E 012°41'3 6.9
2017-May-14 03:00N 54°50' E 012°37'810.8
2017-May-14 02:16N 54°43' E 012°29'1 3.0
2017-May-14 02:00N 54°43' E 012°29'10 7.8
2017-May-14 00:46N 54°35' E 012°18'310.6
2017-May-14 00:30N 54°32' E 012°18'5 9.8
2017-May-14 00:00N 54°28' E 012°15'8 7.4
2017-May-13 22:54N 54°24' E 012°03'411.0
2017-May-13 22:30N 54°24' E 011°55'2410.7
2017-May-13 20:14N 54°32' E 011°16'310.6
2017-May-13 19:56N 54°33' E 011°11'410.3
2017-May-13 19:30N 54°34' E 011°04'510.2
2017-May-13 19:00N 54°36' E 010°55'510.6
2017-May-13 18:30N 54°37' E 010°46'10 1.2
2017-May-13 10:28N 54°40' E 010°30'  
Track history (hours):
 
Tides and Currents Weather Stations Pressure Air Temp Water Temp Dewpoint Dewpoint Depression Visibility Wind Speed Wind Dir Waves Ship Positions

Oceanographic research ship Alkor (Germany)

Ship's website: http://www.briese.de/

Detailed information on ship capabilities available from University of Delaware's Ocean Information Center.

Last reported at 2017-May-22 21:01 UTC. Time now 2017-May-22 21:11 UTC.
Position N 55°10' E 015°11'.

Length 55 m; draft 4.2 m.

Type: Ship. MMSI: 211216512.

Date/timePositionNaut miles runAvg speedWind from/ knotsBaromVisibWave heightAir tempDewpointWater temp
2017-May-22 21:01N 55°10' E 015°11'612.1
2017-May-22 20:31N 55°15' E 015°04'3 6.6
2017-May-22 20:00N 55°18' E 015°00'4 8.3
2017-May-22 19:30N 55°18' E 015°08'5 9.7
2017-May-22 19:01N 55°17' E 015°16'2 4.4
2017-May-22 18:30N 55°17' E 015°20'510.8
2017-May-22 18:00N 55°18' E 015°30'1 1.7
2017-May-22 17:31N 55°18' E 015°31'611.1
2017-May-22 17:01N 55°17' E 015°41'3 5.1
2017-May-22 16:31N 55°17' E 015°45'4 8.4
2017-May-22 16:01N 55°17' E 015°52'4 7.8
2017-May-22 15:26N 55°18' E 016°00'3 5.6
2017-May-22 14:59N 55°20' E 016°00'7 7.6
2017-May-22 14:00N 55°27' E 016°00'611.3
2017-May-22 13:28N 55°27' E 015°49'3 6.1
2017-May-22 13:01N 55°27' E 015°44'5 9.5
2017-May-22 12:31N 55°27' E 015°36'3 6.8
2017-May-22 12:01N 55°27' E 015°30'5 9.2
2017-May-22 11:31N 55°27' E 015°22'4 7.8
2017-May-22 11:00N 55°28' E 015°15'3 6.9
2017-May-22 10:31N 55°28' E 015°09'5 9.6
2017-May-22 10:01N 55°28' E 015°01'3 5.2
2017-May-22 09:31N 55°30' E 014°59'611.2
2017-May-22 09:01N 55°36' E 014°59'611.4
2017-May-22 08:30N 55°41' E 014°58'4 8.9
2017-May-22 08:00N 55°46' E 014°57'3 5.3
2017-May-22 07:30N 55°43' E 014°59'2 4.7
2017-May-22 07:00N 55°42' E 014°55'611.9
2017-May-22 06:30N 55°38' E 014°47'2 3.8
2017-May-22 06:00N 55°37' E 014°45'611.4
2017-May-22 05:29N 55°31' E 014°46'3 7.2
2017-May-22 05:00N 55°27' E 014°45'4 7.5
2017-May-22 04:31N 55°30' E 014°49'611.4
2017-May-22 04:00N 55°35' E 014°56'4 7.5
2017-May-22 03:30N 55°38' E 015°00'4 8.0
2017-May-22 03:00N 55°38' E 015°07'4 9.0
2017-May-22 02:31N 55°37' E 015°15'3 5.9
2017-May-22 02:00N 55°38' E 015°20'510.4
2017-May-22 01:31N 55°37' E 015°29'3 6.6
2017-May-22 01:01N 55°38' E 015°35'511.0
2017-May-22 00:31N 55°37' E 015°45'3 5.3
2017-May-22 00:01N 55°37' E 015°50'510.6
2017-May-21 23:30N 55°37' E 015°59'2 3.8
2017-May-21 23:01N 55°39' E 016°00'611.8
2017-May-21 22:31N 55°45' E 016°00'2 4.7
2017-May-21 22:01N 55°47' E 016°01'510.2
2017-May-21 21:30N 55°48' E 016°10'3 5.6
2017-May-21 21:01N 55°47' E 016°15'510.4
2017-May-21 20:31N 55°42' E 016°15'5 9.5
2017-May-21 20:01N 55°37' E 016°15'2 4.3
2017-May-21 19:31N 55°37' E 016°19'510.9
2017-May-21 19:01N 55°37' E 016°28'1 2.9
2017-May-21 18:30N 55°39' E 016°30'611.7
2017-May-21 18:01N 55°44' E 016°30'3 6.2
2017-May-21 17:31N 55°48' E 016°30'4 8.7
2017-May-21 17:01N 55°52' E 016°31'611.3
2017-May-21 16:30N 55°57' E 016°33'611.2
2017-May-21 16:00N 56°03' E 016°34'611.0
2017-May-21 15:30N 56°07' E 016°40'611.1
2017-May-21 15:01N 56°12' E 016°45'611.2
2017-May-21 14:30N 56°17' E 016°49'1211.1
2017-May-21 13:23N 56°29' E 016°57'  
2017-May-18 06:03N 55°46' E 018°30'0 0.8
2017-May-18 06:00N 55°46' E 018°30'510.3
2017-May-18 05:30N 55°49' E 018°22'611.5
2017-May-18 05:00N 55°52' E 018°14'1 2.4
2017-May-18 04:30N 55°53' E 018°13'9 7.4
2017-May-18 03:16N 55°55' E 018°29'46 4.6
2017-May-17 17:09N 55°12' E 018°58'211.8
2017-May-17 17:00N 55°10' E 018°59'611.7
2017-May-17 16:30N 55°04' E 019°02'5 9.3
2017-May-17 16:01N 55°00' E 019°05'2 4.5
2017-May-17 15:30N 54°58' E 019°07'510.2
2017-May-17 15:01N 54°54' E 019°12'7 7.0
2017-May-17 14:00N 54°58' E 019°02'611.5
2017-May-17 13:31N 55°01' E 018°54'5 9.1
2017-May-17 13:00N 55°04' E 018°47'1 2.8
2017-May-17 12:31N 55°03' E 018°46'2 3.1
2017-May-17 12:00N 55°02' E 018°45'510.1
2017-May-17 11:30N 54°58' E 018°38'611.8
2017-May-17 11:01N 54°54' E 018°45'3 5.0
2017-May-17 10:31N 54°52' E 018°48'2 3.1
2017-May-17 10:00N 54°51' E 018°51'3 5.7
2017-May-17 09:30N 54°50' E 018°55'3 6.8
2017-May-17 09:00N 54°49' E 019°01'2 3.1
2017-May-17 08:30N 54°48' E 019°03'3 5.8
2017-May-17 08:01N 54°47' E 019°08'611.7
2017-May-17 07:30N 54°42' E 019°11'611.1
2017-May-17 07:01N 54°36' E 019°13'1 2.9
2017-May-17 06:30N 54°37' E 019°15'2 3.2
2017-May-17 06:00N 54°38' E 019°17'5 9.9
2017-May-17 05:30N 54°43' E 019°17'2 3.5
2017-May-17 05:01N 54°44' E 019°15'611.6
2017-May-17 04:30N 54°49' E 019°08'1 2.6
2017-May-17 04:00N 54°50' E 019°07'611.3
2017-May-17 03:30N 54°53' E 018°59'3 5.9
2017-May-17 03:00N 54°54' E 018°54'3 6.6
2017-May-17 02:30N 54°56' E 018°49'611.0
2017-May-17 02:00N 54°59' E 018°41'1 2.7
2017-May-17 01:31N 55°00' E 018°41'611.1
2017-May-17 01:01N 55°06' E 018°44'510.3
2017-May-17 00:30N 55°10' E 018°49'2 3.6
2017-May-17 00:01N 55°11' E 018°47'611.3
2017-May-16 23:31N 55°14' E 018°39'1 2.7
2017-May-16 23:00N 55°14' E 018°36'611.5
2017-May-16 22:30N 55°10' E 018°29'3 5.2
2017-May-16 22:00N 55°09' E 018°25'4 8.8
2017-May-16 21:31N 55°13' E 018°23'510.7
2017-May-16 21:00N 55°19' E 018°21'5 9.3
2017-May-16 20:30N 55°23' E 018°19'3 5.1
2017-May-16 20:00N 55°24' E 018°15'611.3
2017-May-16 19:30N 55°26' E 018°06'611.2
2017-May-16 19:01N 55°29' E 017°57'1 2.7
2017-May-16 18:30N 55°28' E 017°55'611.6
2017-May-16 18:00N 55°22' E 017°55'611.6
2017-May-16 17:30N 55°16' E 017°55'2 4.3
2017-May-16 17:00N 55°14' E 017°54'511.0
2017-May-16 16:31N 55°15' E 017°45'510.8
2017-May-16 16:00N 55°15' E 017°35'2 3.4
2017-May-16 15:30N 55°17' E 017°35'611.5
2017-May-16 15:00N 55°22' E 017°35'3 5.1
2017-May-16 14:30N 55°25' E 017°35'1010.5
2017-May-16 13:31N 55°31' E 017°20'611.0
2017-May-16 13:00N 55°34' E 017°11'0 0.8
2017-May-16 12:30N 55°34' E 017°11'5 9.5
2017-May-16 12:00N 55°33' E 017°03'611.2
2017-May-16 11:30N 55°31' E 016°54'611.1
2017-May-16 11:00N 55°28' E 016°45'511.0
2017-May-16 10:30N 55°26' E 016°36'1 1.3
2017-May-16 10:00N 55°26' E 016°35'2 4.1
2017-May-16 09:30N 55°25' E 016°31'510.5
2017-May-16 09:01N 55°24' E 016°23'510.7
2017-May-16 08:30N 55°22' E 016°14'510.7
2017-May-16 08:00N 55°21' E 016°04'510.8
2017-May-16 07:31N 55°19' E 015°55'510.8
2017-May-16 07:00N 55°18' E 015°46'1 1.5
2017-May-16 06:30N 55°17' E 015°45'0 0.0
2017-May-16 06:00N 55°17' E 015°45'0 0.0
2017-May-16 05:30N 55°18' E 015°45'0 0.0
2017-May-16 05:00N 55°18' E 015°45'0 0.0
2017-May-16 04:31N 55°18' E 015°45'2 3.7
2017-May-16 04:00N 55°18' E 015°42'3 5.1
2017-May-16 03:30N 55°18' E 015°37'3 5.2
2017-May-16 03:00N 55°19' E 015°33'3 5.0
2017-May-16 02:30N 55°19' E 015°29'3 5.3
2017-May-16 02:01N 55°20' E 015°24'3 5.5
2017-May-16 01:30N 55°20' E 015°19'3 5.6
2017-May-16 01:00N 55°21' E 015°14'3 5.5
2017-May-16 00:31N 55°21' E 015°10'3 5.5
2017-May-16 00:01N 55°22' E 015°05'3 5.7
2017-May-15 23:30N 55°22' E 014°60'3 5.9
2017-May-15 23:01N 55°22' E 014°55'3 6.0
2017-May-15 22:30N 55°22' E 014°49'3 5.9
2017-May-15 22:01N 55°22' E 014°44'3 5.7
2017-May-15 21:30N 55°22' E 014°39'2 4.4
2017-May-15 21:00N 55°20' E 014°37'611.6
2017-May-15 20:30N 55°15' E 014°31'2 3.8
2017-May-15 20:00N 55°14' E 014°29'4 8.2
2017-May-15 19:30N 55°10' E 014°25'4 8.1
2017-May-15 19:00N 55°08' E 014°30'2 3.7
2017-May-15 18:30N 55°07' E 014°32'611.4
2017-May-15 18:00N 55°07' E 014°22'4 7.9
2017-May-15 17:30N 55°07' E 014°16'4 8.0
2017-May-15 17:01N 55°05' E 014°21'3 5.5
2017-May-15 16:31N 55°02' E 014°19'4 7.7
2017-May-15 16:00N 54°58' E 014°16'1 1.2
2017-May-15 15:30N 54°58' E 014°15'2 4.1
2017-May-15 14:58N 54°57' E 014°12'2 4.2
2017-May-15 14:30N 54°56' E 014°09'1010.2
2017-May-15 13:30N 54°50' E 013°54'511.2
2017-May-15 13:00N 54°47' E 013°47'2 2.7
2017-May-15 12:20N 54°47' E 013°50'1 2.5
2017-May-15 12:00N 54°47' E 013°51'611.4
2017-May-15 11:29N 54°46' E 013°41'611.7
2017-May-15 11:00N 54°46' E 013°31'2 1.6
2017-May-15 09:59N 54°46' E 013°34'2 1.5
2017-May-15 08:22N 54°47' E 013°38'1 2.7
2017-May-15 07:54N 54°47' E 013°40'11 7.0
2017-May-15 06:25N 54°56' E 013°49'1 2.8
2017-May-15 06:00N 54°56' E 013°51'0 0.5
2017-May-15 05:30N 54°56' E 013°52'2 3.1
2017-May-15 04:56N 54°55' E 013°50'1 2.5
2017-May-15 04:24N 54°55' E 013°47'1 1.5
2017-May-15 03:56N 54°55' E 013°46'2 3.2
2017-May-15 03:19N 54°57' E 013°47'1 2.4
2017-May-15 03:00N 54°57' E 013°46'712.1
2017-May-15 02:28N 54°57' E 013°35'3 5.2
2017-May-15 01:56N 54°56' E 013°30'11 6.8
2017-May-15 00:17N 54°47' E 013°42'3 8.7
2017-May-14 23:59N 54°47' E 013°47'5 7.4
2017-May-14 23:22N 54°50' E 013°52'411.3
2017-May-14 23:00N 54°53' E 013°58'2 4.5
2017-May-14 22:30N 54°54' E 014°01'510.8
2017-May-14 22:00N 54°60' E 014°01'2 4.7
2017-May-14 21:30N 55°02' E 014°02'611.3
2017-May-14 20:59N 55°08' E 014°02'2 3.3
2017-May-14 20:29N 55°09' E 013°60'611.6
2017-May-14 20:00N 55°07' E 013°50'3 5.7
2017-May-14 19:29N 55°07' E 013°45'611.3
2017-May-14 18:59N 55°07' E 013°35'3 6.9
2017-May-14 18:30N 55°07' E 013°30'6 9.8
2017-May-14 17:54N 55°05' E 013°20'2 5.3
2017-May-14 17:27N 55°04' E 013°16'510.6
2017-May-14 17:00N 54°59' E 013°15'11 2.0
2017-May-14 11:46N 54°49' E 013°15'0 0.1
2017-May-14 11:19N 54°49' E 013°15'1 3.8
2017-May-14 11:00N 54°49' E 013°17'2 4.0
2017-May-14 10:28N 54°49' E 013°21'4 4.7
2017-May-14 09:43N 54°49' E 013°27'5 2.7
2017-May-14 07:57N 54°53' E 013°33'510.4
2017-May-14 07:27N 54°57' E 013°27'511.5
2017-May-14 07:00N 54°59' E 013°19'2 4.3
2017-May-14 06:29N 54°59' E 013°15'1 2.3
2017-May-14 05:53N 54°57' E 013°15'21 8.3
2017-May-14 03:24N 54°52' E 012°41'3 6.9
2017-May-14 03:00N 54°50' E 012°37'810.8
2017-May-14 02:16N 54°43' E 012°29'1 3.0
2017-May-14 02:00N 54°43' E 012°29'10 7.8
2017-May-14 00:46N 54°35' E 012°18'310.6
2017-May-14 00:30N 54°32' E 012°18'5 9.8
2017-May-14 00:00N 54°28' E 012°15'8 7.4
2017-May-13 22:54N 54°24' E 012°03'411.0
2017-May-13 22:30N 54°24' E 011°55'2410.7
2017-May-13 20:14N 54°32' E 011°16'310.6
2017-May-13 19:56N 54°33' E 011°11'410.3
2017-May-13 19:30N 54°34' E 011°04'510.2
2017-May-13 19:00N 54°36' E 010°55'510.6
2017-May-13 18:30N 54°37' E 010°46'10 1.2
2017-May-13 10:28N 54°40' E 010°30'  

Dump ship's entire track history